Time;durP1;ratioP1;P1;durP2;ratioP2;P2;SDS_P1;SDS_P2;PMS_P1;PMS_P2;Temp;Humidity;BMP_temperature;BMP_pressure;BME280_temperature;BME280_humidity;BME280_pressure;Samples;Min_cycle;Max_cycle;Signal;HPM_P1;HPM_P2
2021/12/12 00:00:47;;;;;;;4.20;3.90;;;4.70;99.90;;;;;;5068794;28;20278;-68
2021/12/12 00:03:32;;;;;;;3.78;3.13;;;4.70;99.90;;;;;;5068738;28;20305;-68
2021/12/12 00:06:00;;;;;;;4.57;4.18;;;4.60;99.90;;;;;;5068811;28;20166;-68
2021/12/12 00:08:27;;;;;;;4.40;4.00;;;4.60;99.90;;;;;;5051256;28;20169;-68
2021/12/12 00:11:00;;;;;;;4.70;4.30;;;4.60;99.90;;;;;;5068688;28;20225;-68
2021/12/12 00:13:31;;;;;;;7.15;3.50;;;4.60;99.90;;;;;;5068648;28;20177;-67
2021/12/12 00:15:57;;;;;;;5.63;5.00;;;4.50;99.90;;;;;;5051165;28;20169;-67
2021/12/12 00:18:23;;;;;;;5.40;3.73;;;4.50;99.90;;;;;;5068313;28;20177;-68
2021/12/12 00:20:50;;;;;;;4.03;2.90;;;4.60;99.90;;;;;;5068413;28;20165;-68
2021/12/12 00:23:16;;;;;;;4.65;3.30;;;4.60;99.90;;;;;;5068220;28;20193;-69
2021/12/12 00:25:46;;;;;;;4.95;4.00;;;4.70;99.90;;;;;;5068449;28;20186;-69
2021/12/12 00:28:15;;;;;;;4.97;2.95;;;4.60;99.90;;;;;;5068065;28;20161;-69
2021/12/12 00:30:42;;;;;;;7.13;3.60;;;4.60;99.90;;;;;;5068714;28;20278;-69
2021/12/12 00:33:09;;;;;;;6.22;2.97;;;4.60;99.90;;;;;;5068336;28;20200;-69
2021/12/12 00:35:40;;;;;;;4.13;3.20;;;4.60;99.90;;;;;;5068294;28;20455;-69
2021/12/12 00:38:12;;;;;;;3.53;3.22;;;4.70;99.90;;;;;;5050468;28;20404;-69
2021/12/12 00:40:43;;;;;;;4.30;3.90;;;4.70;99.90;;;;;;5068280;28;20245;-68
2021/12/12 00:43:26;;;;;;;2.40;2.30;;;4.70;99.90;;;;;;5068022;28;20189;-68
2021/12/12 00:45:54;;;;;;;4.43;3.47;;;4.70;99.90;;;;;;5066664;28;20166;-68
2021/12/12 00:48:22;;;;;;;3.65;3.08;;;4.70;99.90;;;;;;5068052;28;20166;-68
2021/12/12 00:50:49;;;;;;;5.07;3.83;;;4.70;99.90;;;;;;5067828;28;20328;-68
2021/12/12 00:53:15;;;;;;;4.72;3.20;;;4.60;99.90;;;;;;5067752;28;20297;-69
2021/12/12 00:55:44;;;;;;;7.38;5.45;;;4.60;99.90;;;;;;5067826;28;20227;-69
2021/12/12 00:58:13;;;;;;;2.92;2.65;;;4.50;99.90;;;;;;5067679;28;20211;-68
2021/12/12 01:00:47;;;;;;;3.15;2.83;;;4.50;99.90;;;;;;5067722;28;20220;-68
2021/12/12 01:03:14;;;;;;;2.00;1.80;;;4.50;99.90;;;;;;5050019;28;20192;-69
2021/12/12 01:05:40;;;;;;;3.58;2.90;;;4.50;99.90;;;;;;5067742;28;20188;-68
2021/12/12 01:08:07;;;;;;;6.63;3.42;;;4.60;99.90;;;;;;5070717;28;20357;-69
2021/12/12 01:10:42;;;;;;;5.20;2.22;;;4.60;99.90;;;;;;5087476;28;20169;-70
2021/12/12 01:13:08;;;;;;;5.13;3.90;;;4.70;99.90;;;;;;5087459;28;20192;-69
2021/12/12 01:16:06;;;;;;;3.20;2.90;;;4.60;99.90;;;;;;5087548;28;20190;-69
2021/12/12 01:18:36;;;;;;;3.40;2.63;;;4.60;99.90;;;;;;5054971;28;21082;-69
2021/12/12 01:21:12;;;;;;;7.15;4.00;;;4.60;99.90;;;;;;5087463;28;20173;-69
2021/12/12 01:23:46;;;;;;;5.25;2.60;;;4.60;99.90;;;;;;5087376;28;20380;-69
2021/12/12 01:26:12;;;;;;;4.38;3.28;;;4.70;99.90;;;;;;5087422;28;20222;-69
2021/12/12 01:28:42;;;;;;;5.85;2.63;;;4.60;99.90;;;;;;5087200;28;20216;-69
2021/12/12 01:31:12;;;;;;;4.80;2.63;;;4.60;99.90;;;;;;5087345;28;20253;-69
2021/12/12 01:33:38;;;;;;;3.75;2.78;;;4.60;99.90;;;;;;5069764;28;20184;-69
2021/12/12 01:36:22;;;;;;;3.45;3.15;;;4.60;99.90;;;;;;5069736;28;20161;-69
2021/12/12 01:38:53;;;;;;;3.88;2.78;;;4.70;99.90;;;;;;5087200;28;20303;-69
2021/12/12 01:41:22;;;;;;;2.67;2.47;;;4.60;99.90;;;;;;5087343;28;20165;-69
2021/12/12 01:43:49;;;;;;;2.83;2.60;;;4.60;99.90;;;;;;5087127;28;20183;-68
2021/12/12 01:46:19;;;;;;;3.72;2.42;;;4.60;99.90;;;;;;5069524;28;20179;-69
2021/12/12 01:48:55;;;;;;;5.68;3.42;;;4.70;99.90;;;;;;5087134;28;20174;-69
2021/12/12 01:51:22;;;;;;;2.75;2.53;;;4.70;99.90;;;;;;5087110;28;20219;-70
2021/12/12 01:53:52;;;;;;;6.00;2.78;;;4.70;99.90;;;;;;5087064;28;20329;-68
2021/12/12 01:56:31;;;;;;;3.00;2.67;;;4.70;99.90;;;;;;5086708;28;20285;-69
2021/12/12 01:59:03;;;;;;;2.92;2.70;;;4.70;99.90;;;;;;5086781;28;20181;-69
2021/12/12 02:01:37;;;;;;;7.80;3.67;;;4.60;99.90;;;;;;5086948;28;20172;-69
2021/12/12 02:04:12;;;;;;;11.30;3.17;;;4.60;99.90;;;;;;5086792;28;20442;-68
2021/12/12 02:06:38;;;;;;;2.65;2.50;;;4.60;99.90;;;;;;5086627;28;20262;-69
2021/12/12 02:09:06;;;;;;;4.95;2.92;;;4.60;99.90;;;;;;5075425;28;20262;-68
2021/12/12 02:11:34;;;;;;;4.35;3.15;;;4.60;99.90;;;;;;5066703;28;20216;-68
2021/12/12 02:14:08;;;;;;;2.38;1.70;;;4.70;99.90;;;;;;5066786;28;20249;-69
2021/12/12 02:16:36;;;;;;;3.50;2.85;;;4.70;99.90;;;;;;5066663;28;20286;-69
2021/12/12 02:19:03;;;;;;;3.50;3.20;;;4.80;99.90;;;;;;5066819;28;20174;-68
2021/12/12 02:21:36;;;;;;;3.35;3.10;;;4.70;99.90;;;;;;5066650;28;21130;-68
2021/12/12 02:35:09;;;;;;;4.88;2.42;;;4.60;99.90;;;;;;5066622;28;20220;-68
2021/12/12 02:37:36;;;;;;;3.45;3.22;;;4.60;99.90;;;;;;5066501;28;20213;-68
2021/12/12 02:40:08;;;;;;;3.00;2.80;;;4.60;99.90;;;;;;5066634;28;20184;-68
2021/12/12 02:42:33;;;;;;;10.13;2.33;;;4.60;99.90;;;;;;5066696;28;20176;-69
2021/12/12 02:45:01;;;;;;;3.17;2.50;;;4.60;99.90;;;;;;5066521;28;20286;-70
2021/12/12 02:47:35;;;;;;;1.92;1.80;;;4.60;99.90;;;;;;5066282;28;20403;-69
2021/12/12 02:50:13;;;;;;;2.40;2.30;;;4.50;99.90;;;;;;5066608;28;20324;-68
2021/12/12 02:52:43;;;;;;;2.08;1.90;;;4.50;99.90;;;;;;5066471;28;20216;-68
2021/12/12 02:55:14;;;;;;;4.05;3.65;;;4.50;99.90;;;;;;5066335;28;20318;-68
2021/12/12 02:57:40;;;;;;;2.25;1.77;;;4.60;99.90;;;;;;5066106;28;20317;-69
2021/12/12 03:00:10;;;;;;;3.13;1.93;;;4.60;99.90;;;;;;5066489;28;20295;-69
2021/12/12 03:02:44;;;;;;;2.60;2.03;;;4.60;99.90;;;;;;5066248;28;20643;-68
2021/12/12 03:05:11;;;;;;;6.25;2.60;;;4.60;99.90;;;;;;5066403;28;20185;-68
2021/12/12 03:07:37;;;;;;;1.90;1.80;;;4.70;99.90;;;;;;5066004;28;20170;-67
2021/12/12 03:10:07;;;;;;;2.30;2.10;;;4.70;99.90;;;;;;5087780;28;20230;-68
2021/12/12 03:12:35;;;;;;;3.65;1.95;;;4.70;99.90;;;;;;5090043;28;20454;-68
2021/12/12 03:15:11;;;;;;;2.85;2.53;;;4.80;99.90;;;;;;5089959;28;20190;-68
2021/12/12 03:17:38;;;;;;;2.03;1.92;;;4.70;99.90;;;;;;5089696;28;20160;-68
2021/12/12 03:20:23;;;;;;;5.15;3.17;;;4.70;99.90;;;;;;5089877;28;20404;-69
2021/12/12 03:22:54;;;;;;;2.08;1.88;;;4.70;99.90;;;;;;5074600;28;20161;-68
2021/12/12 03:25:21;;;;;;;1.95;1.80;;;4.70;99.90;;;;;;5089846;28;20240;-68
2021/12/12 03:27:47;;;;;;;2.50;2.30;;;4.70;99.90;;;;;;5089491;28;20296;-68
2021/12/12 03:30:13;;;;;;;4.63;3.33;;;4.70;99.90;;;;;;5089595;28;20176;-68
2021/12/12 03:32:39;;;;;;;1.88;1.50;;;4.70;99.90;;;;;;5089560;28;20227;-69
2021/12/12 03:35:06;;;;;;;2.87;1.77;;;4.70;99.90;;;;;;5089580;28;20164;-67
2021/12/12 03:37:33;;;;;;;1.65;1.52;;;4.60;99.90;;;;;;5089347;28;20399;-68
2021/12/12 03:40:04;;;;;;;2.00;1.90;;;4.60;99.90;;;;;;5089579;28;20265;-68
2021/12/12 03:42:30;;;;;;;2.67;1.90;;;4.60;99.90;;;;;;5089544;28;20244;-68
2021/12/12 03:44:58;;;;;;;3.37;3.00;;;4.60;99.90;;;;;;5089541;28;20181;-68
2021/12/12 03:47:39;;;;;;;2.25;2.15;;;4.60;99.90;;;;;;5089235;28;20414;-68
2021/12/12 03:50:12;;;;;;;2.85;2.55;;;4.70;99.90;;;;;;5089403;28;20239;-68
2021/12/12 03:52:38;;;;;;;2.22;1.92;;;4.60;99.90;;;;;;5089318;28;20262;-68
2021/12/12 03:55:06;;;;;;;13.48;2.60;;;4.60;99.90;;;;;;5089190;28;20216;-68
2021/12/12 03:57:32;;;;;;;1.73;1.63;;;4.60;99.90;;;;;;5088733;28;20178;-68
2021/12/12 04:00:05;;;;;;;1.40;1.30;;;4.50;99.90;;;;;;5089163;28;20156;-69
2021/12/12 04:02:31;;;;;;;2.33;1.70;;;4.50;99.90;;;;;;5088874;28;20203;-68
2021/12/12 04:04:57;;;;;;;2.00;1.77;;;4.50;99.90;;;;;;5089040;28;20180;-68
2021/12/12 04:07:27;;;;;;;3.17;1.67;;;4.50;99.90;;;;;;5071183;28;20179;-68
2021/12/12 04:09:54;;;;;;;2.65;2.45;;;4.40;99.90;;;;;;5070738;28;20317;-68
2021/12/12 04:12:22;;;;;;;1.90;1.80;;;4.40;99.90;;;;;;5068720;28;20459;-68
2021/12/12 04:14:48;;;;;;;4.35;1.63;;;4.40;99.90;;;;;;5068725;28;20445;-68
2021/12/12 04:17:19;;;;;;;1.85;1.75;;;4.40;99.90;;;;;;5068608;28;20157;-69
2021/12/12 04:19:47;;;;;;;2.40;2.20;;;4.40;99.90;;;;;;5068606;28;20165;-68
2021/12/12 04:22:13;;;;;;;2.03;1.60;;;4.30;99.90;;;;;;5068705;28;20165;-69
2021/12/12 04:24:44;;;;;;;2.60;2.40;;;4.30;99.90;;;;;;5068393;28;20472;-68
2021/12/12 04:27:10;;;;;;;1.40;1.30;;;4.20;99.90;;;;;;5068848;28;20161;-68
2021/12/12 04:29:40;;;;;;;2.17;2.08;;;4.10;99.90;;;;;;5068523;28;20166;-69
2021/12/12 04:32:13;;;;;;;2.30;2.20;;;4.00;99.90;;;;;;5068465;28;20212;-69
2021/12/12 04:34:46;;;;;;;2.60;2.30;;;3.90;99.90;;;;;;5068365;28;20184;-69
2021/12/12 04:37:13;;;;;;;2.10;1.63;;;3.70;99.90;;;;;;5068093;28;20169;-69
2021/12/12 04:39:42;;;;;;;2.67;2.47;;;3.60;99.90;;;;;;5068368;28;20161;-69
2021/12/12 04:42:19;;;;;;;2.15;1.95;;;3.50;99.90;;;;;;5068317;28;20169;-68
2021/12/12 04:44:48;;;;;;;1.75;1.65;;;3.40;99.90;;;;;;5068274;28;20275;-68
2021/12/12 04:50:21;;;;;;;1.55;1.42;;;3.30;99.90;;;;;;5068260;28;20400;-68
2021/12/12 04:53:13;;;;;;;2.45;2.25;;;3.20;99.90;;;;;;5068007;28;20205;-68
2021/12/12 04:56:08;;;;;;;3.95;2.75;;;3.10;99.90;;;;;;5068113;28;20165;-68
2021/12/12 04:59:00;;;;;;;1.73;1.63;;;3.10;99.90;;;;;;5061061;28;20243;-68
2021/12/12 05:01:34;;;;;;;2.20;2.10;;;3.10;99.90;;;;;;5059586;28;20201;-68
2021/12/12 05:04:18;;;;;;;2.03;1.83;;;3.10;99.90;;;;;;5067678;28;20207;-68
2021/12/12 05:06:53;;;;;;;1.10;1.10;;;3.10;99.90;;;;;;5067522;28;20401;-68
2021/12/12 05:09:42;;;;;;;1.52;1.42;;;3.10;99.90;;;;;;5063622;28;20164;-68
2021/12/12 05:12:16;;;;;;;2.47;2.05;;;3.10;99.90;;;;;;5087718;28;20203;-68
2021/12/12 05:14:50;;;;;;;2.40;2.22;;;3.10;99.90;;;;;;5087632;28;20209;-68
2021/12/12 05:17:40;;;;;;;2.05;1.95;;;3.10;99.90;;;;;;5087501;28;20389;-68
2021/12/12 05:20:12;;;;;;;1.88;1.77;;;3.20;99.90;;;;;;5087634;28;20379;-68
2021/12/12 05:22:43;;;;;;;2.65;1.90;;;3.20;99.90;;;;;;5087504;28;20236;-68
2021/12/12 05:25:16;;;;;;;4.32;1.58;;;3.20;99.90;;;;;;5087500;28;20165;-68
2021/12/12 05:27:43;;;;;;;2.10;2.00;;;3.10;99.90;;;;;;5087212;28;20156;-68
2021/12/12 05:30:16;;;;;;;10.85;3.38;;;3.10;99.90;;;;;;5087287;28;20174;-67
2021/12/12 05:32:44;;;;;;;2.65;2.45;;;3.00;99.90;;;;;;5086657;28;20343;-67
2021/12/12 05:35:11;;;;;;;1.98;1.85;;;3.00;99.90;;;;;;5087350;28;20217;-68
2021/12/12 05:37:38;;;;;;;1.77;1.67;;;2.90;99.90;;;;;;5086982;27;20222;-68
2021/12/12 05:40:08;;;;;;;1.92;1.83;;;2.90;99.90;;;;;;5087281;28;20161;-68
2021/12/12 05:42:33;;;;;;;2.85;2.30;;;2.90;99.90;;;;;;5087180;28;20188;-67
2021/12/12 05:45:00;;;;;;;5.03;1.60;;;2.90;99.90;;;;;;5087167;28;20177;-68
2021/12/12 05:47:27;;;;;;;1.98;1.58;;;3.00;99.90;;;;;;5086871;28;20418;-68
2021/12/12 05:49:53;;;;;;;4.43;2.40;;;3.10;99.90;;;;;;5069619;28;20274;-67
2021/12/12 05:52:21;;;;;;;2.27;2.17;;;3.10;99.90;;;;;;5087163;28;20241;-69
2021/12/12 05:54:49;;;;;;;4.00;2.30;;;3.10;99.90;;;;;;5069732;28;20419;-67
2021/12/12 05:57:22;;;;;;;3.85;3.55;;;3.10;99.90;;;;;;5086876;28;20173;-68
2021/12/12 05:59:48;;;;;;;4.25;2.30;;;3.10;99.90;;;;;;5087310;28;20172;-68
2021/12/12 06:02:14;;;;;;;2.88;2.58;;;3.10;99.90;;;;;;5087172;28;20165;-69
2021/12/12 06:04:40;;;;;;;2.15;1.98;;;3.00;99.90;;;;;;5086975;28;20417;-69
2021/12/12 06:07:10;;;;;;;2.17;2.03;;;3.00;99.90;;;;;;5086629;28;20183;-69
2021/12/12 06:09:37;;;;;;;1.88;1.77;;;2.90;99.90;;;;;;5070932;28;20411;-69
2021/12/12 06:12:05;;;;;;;1.63;1.52;;;2.90;99.90;;;;;;5066764;28;20281;-68
2021/12/12 06:14:32;;;;;;;1.65;1.55;;;2.80;99.90;;;;;;5066844;28;20402;-69
2021/12/12 06:17:01;;;;;;;3.50;2.58;;;2.80;99.90;;;;;;5069321;28;20212;-70
2021/12/12 06:19:31;;;;;;;2.15;1.85;;;2.80;99.90;;;;;;5072353;28;20383;-67
2021/12/12 06:21:58;;;;;;;1.65;1.45;;;2.80;99.90;;;;;;5072433;28;20168;-67
2021/12/12 06:24:26;;;;;;;2.08;1.90;;;2.80;99.90;;;;;;5054948;28;20284;-68
2021/12/12 06:26:53;;;;;;;4.57;2.60;;;2.70;99.90;;;;;;5054432;28;20232;-68
2021/12/12 06:29:19;;;;;;;2.50;2.30;;;2.70;99.90;;;;;;5070846;28;20180;-68
2021/12/12 06:31:47;;;;;;;1.80;1.65;;;2.70;99.90;;;;;;5068883;28;20220;-68
2021/12/12 06:34:14;;;;;;;4.60;2.30;;;2.60;99.90;;;;;;5066622;28;20203;-67
2021/12/12 06:36:41;;;;;;;2.97;2.55;;;2.50;99.90;;;;;;5048838;28;20240;-69
2021/12/12 06:39:10;;;;;;;2.55;2.35;;;2.50;99.90;;;;;;5066555;28;20223;-68
2021/12/12 06:41:37;;;;;;;2.63;2.20;;;2.50;99.90;;;;;;5066604;28;20420;-69
2021/12/12 06:44:05;;;;;;;1.85;1.75;;;2.50;99.90;;;;;;5068539;28;20256;-69
2021/12/12 06:46:32;;;;;;;2.05;1.95;;;2.40;99.90;;;;;;5070277;28;20185;-68
2021/12/12 06:49:00;;;;;;;3.53;3.42;;;2.40;99.90;;;;;;5070508;28;20161;-68
2021/12/12 06:51:28;;;;;;;1.60;1.50;;;2.40;99.90;;;;;;5070397;28;20223;-69
2021/12/12 06:53:54;;;;;;;2.72;2.53;;;2.40;99.90;;;;;;5070283;28;20216;-69
2021/12/12 06:56:21;;;;;;;5.07;2.20;;;2.40;99.90;;;;;;5070150;28;20162;-69
2021/12/12 06:58:48;;;;;;;3.58;2.22;;;2.40;99.90;;;;;;5070233;28;20232;-68
2021/12/12 07:01:20;;;;;;;2.22;2.03;;;2.40;99.90;;;;;;5070290;28;20243;-68
2021/12/12 07:03:48;;;;;;;2.13;1.92;;;2.30;99.90;;;;;;5070023;28;20200;-68
2021/12/12 07:06:21;;;;;;;3.22;2.25;;;2.30;99.90;;;;;;5052607;28;20197;-68
2021/12/12 07:08:48;;;;;;;4.10;3.20;;;2.20;99.90;;;;;;5079168;28;20244;-68
2021/12/12 07:11:23;;;;;;;4.00;2.28;;;2.30;99.90;;;;;;5072424;28;20219;-68
2021/12/12 07:13:50;;;;;;;1.67;1.58;;;2.10;99.90;;;;;;5090090;28;20262;-68
2021/12/12 07:16:17;;;;;;;3.10;2.80;;;2.10;99.90;;;;;;5090087;28;20157;-68
2021/12/12 07:18:43;;;;;;;4.45;2.95;;;2.20;99.90;;;;;;5090017;28;20199;-68
2021/12/12 07:21:13;;;;;;;2.65;2.45;;;2.30;99.90;;;;;;5089753;28;20168;-68
2021/12/12 07:23:40;;;;;;;1.83;1.73;;;2.20;99.90;;;;;;5089833;28;20181;-68
2021/12/12 07:26:08;;;;;;;2.45;2.25;;;2.30;99.90;;;;;;5089772;28;20380;-69
2021/12/12 07:28:34;;;;;;;4.07;3.45;;;2.40;99.90;;;;;;5089360;28;20188;-68
2021/12/12 07:31:12;;;;;;;2.88;2.08;;;2.40;99.90;;;;;;5089648;28;20176;-69
2021/12/12 07:33:39;;;;;;;2.80;2.22;;;2.40;99.90;;;;;;5072342;28;20184;-70
2021/12/12 07:36:08;;;;;;;2.45;2.35;;;2.60;99.90;;;;;;5079091;28;20232;-68
2021/12/12 07:38:35;;;;;;;2.20;1.92;;;2.80;99.90;;;;;;5071901;28;20251;-68
2021/12/12 07:41:03;;;;;;;3.55;2.05;;;3.00;99.90;;;;;;5071952;28;20161;-67
2021/12/12 07:43:30;;;;;;;2.90;2.63;;;3.10;99.90;;;;;;5074673;28;20223;-67
2021/12/12 07:45:56;;;;;;;8.68;3.80;;;3.20;99.90;;;;;;5067825;28;20175;-67
2021/12/12 07:48:23;;;;;;;2.60;2.40;;;3.30;99.90;;;;;;5089054;28;20168;-68
2021/12/12 07:50:50;;;;;;;2.70;2.50;;;3.30;99.90;;;;;;5089262;28;20309;-68
2021/12/12 07:53:18;;;;;;;2.80;2.58;;;3.40;99.90;;;;;;5089170;28;20188;-67
2021/12/12 07:55:45;;;;;;;2.50;2.33;;;3.50;99.90;;;;;;5088561;28;20173;-67
2021/12/12 07:58:15;;;;;;;5.00;3.10;;;3.60;99.90;;;;;;5088894;28;20287;-71
2021/12/12 08:00:44;;;;;;;3.80;3.50;;;3.70;99.90;;;;;;5089077;28;20211;-70
2021/12/12 08:03:11;;;;;;;2.40;2.30;;;3.80;99.90;;;;;;5089013;28;20204;-71
2021/12/12 08:05:37;;;;;;;2.22;2.03;;;3.90;99.90;;;;;;5088373;28;20168;-70
2021/12/12 08:08:10;;;;;;;2.63;2.30;;;4.00;99.90;;;;;;5085474;28;20197;-72
2021/12/12 08:10:38;;;;;;;5.65;2.33;;;4.10;99.90;;;;;;5068918;28;20392;-71
2021/12/12 08:13:05;;;;;;;2.10;1.92;;;4.30;99.90;;;;;;5068932;28;20223;-71
2021/12/12 08:15:31;;;;;;;2.05;1.92;;;4.50;99.90;;;;;;5068986;28;20283;-70
2021/12/12 08:18:01;;;;;;;1.80;1.70;;;5.00;99.90;;;;;;5067945;28;20309;-76
2021/12/12 08:20:30;;;;;;;1.83;1.73;;;5.60;99.90;;;;;;5066779;28;20284;-68
2021/12/12 08:22:57;;;;;;;2.38;2.25;;;6.30;99.90;;;;;;5067531;28;20188;-68
2021/12/12 08:25:25;;;;;;;2.47;2.28;;;7.10;99.90;;;;;;5050311;28;20177;-72
2021/12/12 08:27:52;;;;;;;1.73;1.63;;;8.00;99.90;;;;;;5067471;28;20161;-72
2021/12/12 08:30:19;;;;;;;2.53;2.43;;;8.80;99.90;;;;;;5067835;28;20163;-73
2021/12/12 08:32:48;;;;;;;1.97;1.87;;;9.50;99.90;;;;;;5068217;28;20545;-73
2021/12/12 08:35:16;;;;;;;2.50;2.30;;;9.80;99.90;;;;;;5068044;28;20417;-70
2021/12/12 08:37:43;;;;;;;2.10;1.97;;;9.80;99.90;;;;;;5068142;28;20409;-72
2021/12/12 08:40:12;;;;;;;3.10;2.33;;;9.50;99.90;;;;;;5068355;28;20431;-70
2021/12/12 08:42:38;;;;;;;3.08;2.63;;;9.10;99.90;;;;;;5068339;28;20177;-68
2021/12/12 08:45:08;;;;;;;3.75;1.80;;;8.80;99.90;;;;;;5068147;28;20189;-72
2021/12/12 08:47:35;;;;;;;1.75;1.52;;;8.30;99.90;;;;;;5067635;28;20179;-67
2021/12/12 08:50:05;;;;;;;1.98;1.88;;;8.00;99.90;;;;;;5068102;28;20177;-69
2021/12/12 08:52:37;;;;;;;1.63;1.52;;;7.50;99.90;;;;;;5067554;28;20473;-68
2021/12/12 08:55:08;;;;;;;3.25;2.42;;;7.10;99.90;;;;;;5067541;28;20500;-68
2021/12/12 08:57:57;;;;;;;1.95;1.75;;;6.80;99.90;;;;;;5050102;28;20177;-65
2021/12/12 09:00:25;;;;;;;2.83;2.63;;;6.70;99.90;;;;;;5068059;28;20215;-64
2021/12/12 09:02:53;;;;;;;2.45;1.88;;;6.40;99.90;;;;;;5067412;28;20393;-66
2021/12/12 09:05:24;;;;;;;1.80;1.70;;;6.30;99.90;;;;;;5067736;28;20168;-66
2021/12/12 09:07:51;;;;;;;2.28;1.98;;;6.20;99.90;;;;;;5066275;28;20171;-67
2021/12/12 09:10:38;;;;;;;2.35;2.25;;;6.00;99.90;;;;;;5067612;28;20160;-66
2021/12/12 09:13:24;;;;;;;4.57;4.07;;;5.70;99.90;;;;;;5067506;28;20330;-66
2021/12/12 09:16:01;;;;;;;12.93;6.10;;;5.50;99.90;;;;;;5070468;28;20167;-66
2021/12/12 09:18:38;;;;;;;3.92;2.67;;;5.50;99.90;;;;;;5067264;28;20159;-65
2021/12/12 09:21:25;;;;;;;6.05;4.03;;;5.40;99.90;;;;;;5072637;28;20226;-63
2021/12/12 09:24:05;;;;;;;6.38;3.92;;;5.50;99.90;;;;;;5067281;28;20192;-65
2021/12/12 09:26:36;;;;;;;2.03;1.92;;;5.40;99.90;;;;;;5067207;28;20205;-66
2021/12/12 09:29:15;;;;;;;1.40;1.40;;;5.50;99.90;;;;;;5067270;28;20179;-66
2021/12/12 09:32:29;;;;;;;1.75;1.65;;;5.50;99.90;;;;;;5067481;28;20207;-67
2021/12/12 09:35:08;;;;;;;2.40;1.90;;;5.50;99.90;;;;;;4996347;28;20225;-68
2021/12/12 09:38:07;;;;;;;2.30;2.10;;;5.50;99.90;;;;;;5066902;28;20171;-66
2021/12/12 09:41:09;;;;;;;2.08;1.83;;;5.50;99.90;;;;;;5066901;28;20199;-65
2021/12/12 09:43:51;;;;;;;2.05;1.83;;;5.50;99.90;;;;;;5066833;28;20180;-66
2021/12/12 09:46:58;;;;;;;1.33;1.23;;;5.70;99.90;;;;;;5066810;28;20175;-66
2021/12/12 09:52:55;;;;;;;1.55;1.45;;;6.00;99.90;;;;;;5066892;28;20232;-67
2021/12/12 09:55:28;;;;;;;1.50;1.40;;;6.30;99.90;;;;;;5066851;28;20244;-65
2021/12/12 09:58:00;;;;;;;3.35;2.35;;;6.40;99.90;;;;;;5066194;28;20169;-65
2021/12/12 10:00:39;;;;;;;6.38;3.88;;;6.50;99.90;;;;;;5066906;28;20377;-65
2021/12/12 10:04:09;;;;;;;4.55;3.00;;;6.60;99.90;;;;;;5066401;28;20205;-66
2021/12/12 10:06:56;;;;;;;1.98;1.73;;;6.70;99.90;;;;;;4918227;28;20191;-69
2021/12/12 10:09:50;;;;;;;1.60;1.50;;;6.60;99.90;;;;;;5053166;28;20243;-66
2021/12/12 10:12:23;;;;;;;3.97;3.63;;;6.70;99.90;;;;;;5066513;28;20201;-67
2021/12/12 10:14:51;;;;;;;2.25;2.05;;;6.70;99.90;;;;;;5066915;28;20181;-68
2021/12/12 10:17:16;;;;;;;1.70;1.60;;;6.60;99.90;;;;;;5066301;28;20176;-65
2021/12/12 10:19:42;;;;;;;1.53;1.33;;;6.50;99.90;;;;;;5077604;28;20186;-66
2021/12/12 10:22:23;;;;;;;3.23;1.80;;;6.50;99.90;;;;;;5093365;27;20209;-66
2021/12/12 10:25:20;;;;;;;1.13;1.13;;;6.50;99.90;;;;;;5093117;27;20403;-65
2021/12/12 10:28:01;;;;;;;1.20;1.10;;;6.60;99.90;;;;;;5071042;27;20364;-68
2021/12/12 10:30:39;;;;;;;2.75;2.55;;;6.70;99.90;;;;;;5093341;27;20171;-66
2021/12/12 10:33:11;;;;;;;1.70;1.60;;;6.70;99.90;;;;;;5093023;27;20265;-65
2021/12/12 10:35:47;;;;;;;1.63;1.52;;;6.70;99.90;;;;;;5093039;28;20209;-65
2021/12/12 10:38:27;;;;;;;1.52;1.42;;;6.70;99.90;;;;;;5092844;27;20176;-65
2021/12/12 10:41:16;;;;;;;1.90;1.50;;;6.70;99.90;;;;;;5093205;28;20176;-66
2021/12/12 10:44:10;;;;;;;3.70;2.72;;;6.80;99.90;;;;;;5077609;27;20219;-64
2021/12/12 10:46:54;;;;;;;2.00;1.88;;;6.80;99.90;;;;;;5054297;28;20173;-66
2021/12/12 10:49:56;;;;;;;1.80;1.70;;;6.80;99.90;;;;;;5093051;27;20172;-66
2021/12/12 10:52:44;;;;;;;2.63;1.67;;;6.70;99.90;;;;;;5053826;27;20229;-67
2021/12/12 10:55:36;;;;;;;1.13;1.13;;;6.70;99.90;;;;;;5093155;28;20367;-67
2021/12/12 10:58:25;;;;;;;1.50;1.38;;;6.80;99.90;;;;;;5092777;27;20256;-66
2021/12/12 11:01:16;;;;;;;1.30;1.30;;;6.90;99.90;;;;;;5093085;27;20400;-66
2021/12/12 11:03:51;;;;;;;1.50;1.40;;;7.10;99.90;;;;;;5079719;27;20239;-65
2021/12/12 11:06:26;;;;;;;1.45;1.35;;;7.10;99.90;;;;;;5092498;27;20224;-66
2021/12/12 11:09:08;;;;;;;1.42;1.33;;;7.10;99.90;;;;;;5092733;27;20172;-67
2021/12/12 11:12:23;;;;;;;3.72;2.05;;;7.20;99.90;;;;;;5092939;28;20227;-66
2021/12/12 11:15:07;;;;;;;3.17;2.03;;;7.30;99.90;;;;;;5042712;27;20319;-67
2021/12/12 11:17:48;;;;;;;1.08;1.02;;;7.30;99.90;;;;;;5092453;27;20240;-66
2021/12/12 11:20:21;;;;;;;1.40;1.35;;;7.40;99.90;;;;;;5093000;27;20258;-65
2021/12/12 11:22:51;;;;;;;1.38;1.25;;;7.60;99.90;;;;;;5092553;28;20165;-66
2021/12/12 11:25:29;;;;;;;1.95;1.48;;;7.70;99.90;;;;;;5092591;28;20160;-66
2021/12/12 11:27:59;;;;;;;1.50;1.40;;;7.90;99.90;;;;;;5092692;27;20165;-67
2021/12/12 11:30:34;;;;;;;1.50;1.40;;;8.00;99.90;;;;;;5089772;28;20281;-65
2021/12/12 11:33:06;;;;;;;1.05;1.05;;;7.90;99.90;;;;;;5089312;28;20287;-67
2021/12/12 11:35:33;;;;;;;5.50;1.50;;;7.90;99.90;;;;;;5089455;28;20185;-66
2021/12/12 11:38:11;;;;;;;1.52;1.42;;;8.00;99.90;;;;;;5089036;28;20178;-66
2021/12/12 11:40:56;;;;;;;1.25;1.15;;;8.00;99.90;;;;;;5089239;28;20235;-66
2021/12/12 11:43:37;;;;;;;1.33;1.15;;;8.10;99.90;;;;;;5089423;28;20259;-66
2021/12/12 11:46:10;;;;;;;3.30;1.20;;;8.30;99.90;;;;;;5089265;28;20180;-66
2021/12/12 11:48:48;;;;;;;1.40;1.30;;;8.40;99.90;;;;;;5071611;28;20221;-66
2021/12/12 11:51:19;;;;;;;1.38;1.27;;;8.40;99.90;;;;;;5089284;28;20250;-66
2021/12/12 11:53:56;;;;;;;2.35;1.38;;;8.40;99.90;;;;;;5089065;28;20184;-66
2021/12/12 11:56:29;;;;;;;3.03;2.05;;;8.30;99.90;;;;;;5088754;28;20175;-66
2021/12/12 11:59:37;;;;;;;3.50;1.30;;;8.10;99.90;;;;;;5088937;28;20183;-66
2021/12/12 12:02:27;;;;;;;1.95;1.23;;;8.00;99.90;;;;;;5041456;28;20194;-66
2021/12/12 12:05:15;;;;;;;1.27;1.13;;;8.00;99.90;;;;;;5088894;28;20272;-66
2021/12/12 12:08:18;;;;;;;1.30;1.10;;;8.00;99.90;;;;;;5088475;28;20270;-67
2021/12/12 12:10:51;;;;;;;1.92;1.83;;;8.00;99.90;;;;;;5055905;28;20177;-66
2021/12/12 12:13:35;;;;;;;1.38;1.27;;;7.90;99.90;;;;;;5068475;28;20296;-66
2021/12/12 12:16:29;;;;;;;1.90;1.63;;;7.90;99.90;;;;;;5068517;28;20180;-66
2021/12/12 12:19:34;;;;;;;1.40;1.30;;;8.00;99.90;;;;;;5068587;28;20179;-67
2021/12/12 12:22:10;;;;;;;1.42;1.10;;;8.10;99.90;;;;;;5068423;28;20269;-66
2021/12/12 12:24:55;;;;;;;0.80;0.80;;;8.10;99.90;;;;;;5068533;28;20196;-66
2021/12/12 12:27:38;;;;;;;1.33;1.23;;;8.10;99.90;;;;;;5068124;28;20266;-67
2021/12/12 12:30:31;;;;;;;1.55;1.08;;;8.00;99.90;;;;;;5068179;28;20169;-66
2021/12/12 12:33:18;;;;;;;1.08;1.08;;;7.40;99.90;;;;;;5068056;28;20220;-67
2021/12/12 12:36:19;;;;;;;1.17;1.10;;;8.10;99.90;;;;;;5050503;28;20162;-67
2021/12/12 12:39:32;;;;;;;1.05;0.95;;;8.10;99.90;;;;;;5015692;28;20234;-66
2021/12/12 12:42:47;;;;;;;1.15;1.15;;;8.00;99.90;;;;;;5067924;28;20179;-66
2021/12/12 12:45:50;;;;;;;0.70;0.70;;;8.00;99.90;;;;;;4994284;28;20193;-67
2021/12/12 12:48:34;;;;;;;1.25;1.13;;;7.90;99.90;;;;;;5067859;28;20224;-67
2021/12/12 12:51:39;;;;;;;2.47;1.08;;;8.00;99.90;;;;;;5067711;28;20293;-68
2021/12/12 12:54:26;;;;;;;0.85;0.85;;;8.00;99.90;;;;;;5053029;28;20212;-67
2021/12/12 12:57:28;;;;;;;0.88;0.85;;;8.00;99.90;;;;;;5067441;28;20169;-66
2021/12/12 13:00:06;;;;;;;1.42;1.30;;;8.00;99.90;;;;;;5067706;28;20169;-66
2021/12/12 13:02:58;;;;;;;1.40;1.30;;;8.10;99.90;;;;;;5067720;28;20204;-66
2021/12/12 13:06:01;;;;;;;1.55;1.08;;;8.10;99.90;;;;;;5067593;28;20161;-66
2021/12/12 13:09:05;;;;;;;1.05;0.95;;;8.10;99.90;;;;;;5073627;28;20179;-66
2021/12/12 13:11:47;;;;;;;2.25;2.15;;;8.10;99.90;;;;;;5087554;28;20196;-66
2021/12/12 13:14:47;;;;;;;1.23;1.23;;;8.10;99.90;;;;;;5087621;28;20188;-67
2021/12/12 13:17:41;;;;;;;1.33;1.23;;;8.10;99.90;;;;;;5087203;28;20389;-68
2021/12/12 13:20:41;;;;;;;1.35;1.25;;;8.10;99.90;;;;;;5087428;28;20222;-66
2021/12/12 13:23:07;;;;;;;1.55;1.45;;;8.10;99.90;;;;;;5087327;28;20204;-66
2021/12/12 13:25:37;;;;;;;1.45;1.30;;;8.20;99.90;;;;;;5087435;28;20312;-66
2021/12/12 13:28:28;;;;;;;1.10;1.10;;;8.20;99.90;;;;;;5087054;28;20181;-66
2021/12/12 13:30:59;;;;;;;0.80;0.80;;;8.10;99.90;;;;;;5087368;28;20168;-66
2021/12/12 13:33:47;;;;;;;11.65;2.10;;;8.20;99.90;;;;;;5087202;28;20207;-67
2021/12/12 13:36:27;;;;;;;0.95;0.93;;;8.10;99.90;;;;;;5069616;28;20211;-67
2021/12/12 13:39:25;;;;;;;0.90;0.90;;;8.10;99.90;;;;;;5087196;28;20181;-66
2021/12/12 13:42:09;;;;;;;1.35;0.85;;;8.00;99.90;;;;;;5082116;27;20204;-66
2021/12/12 13:44:57;;;;;;;1.25;0.98;;;8.10;99.90;;;;;;5087038;28;20197;-67
2021/12/12 13:48:03;;;;;;;1.67;1.33;;;8.00;99.90;;;;;;5086607;28;20168;-67
2021/12/12 13:50:45;;;;;;;1.20;1.20;;;7.90;99.90;;;;;;5087107;28;20168;-66
2021/12/12 13:53:40;;;;;;;2.20;1.02;;;8.00;99.90;;;;;;5086355;28;20234;-65
2021/12/12 13:56:56;;;;;;;1.77;1.02;;;8.00;99.90;;;;;;5086985;28;20168;-66